MAPA DE AEROPUERTO

INFORMACIÓN METAR y TAF


Deprecated: The each() function is deprecated. This message will be suppressed on further calls in /home/customer/www/clickair-va.com/public_html/VAM/vam/helpers/get_metar.php on line 20
METAR FOR LEDA
ADDS - METARS form results

(2239 UTC 25 January 2023)
Data provider http://aviationweather.gov/metar/data/
 
METAR text: LEDA 252230Z AUTO 22004KT CAVOK M00/M02 Q1020
Conditions at: LEDA (LLEIDA-ALGUAIRE , ES) observed 2230 UTC 25 January 2023
Temperature: 0.0°C (32°F)
Dewpoint: -2.0°C (28°F) [RH = 86%]
Pressure (altimeter): 30.12 inches Hg (1020.0 mb)
Winds: from the SW (220 degrees) at 5 MPH (4 knots; 2.1 m/s)
Visibility: 6 or more miles (10+ km)
Ceiling: ceiling and visibility are OK
Clouds: unknown
Weather: no significant weather observed at this time

METAR text: LEDA 252200Z AUTO 23007KT CAVOK 00/M02 Q1021
Conditions at: LEDA (LLEIDA-ALGUAIRE , ES) observed 2200 UTC 25 January 2023
Temperature: 0.0°C (32°F)
Dewpoint: -2.0°C (28°F) [RH = 86%]
Pressure (altimeter): 30.15 inches Hg (1021.0 mb)
Winds: from the SW (230 degrees) at 8 MPH (7 knots; 3.6 m/s)
Visibility: 6 or more miles (10+ km)
Ceiling: ceiling and visibility are OK
Clouds: unknown
Weather: no significant weather observed at this time